createdAt,value
2022-08-17T00:01:52.637Z,12.85
2022-08-17T00:05:19.002Z,8.18
2022-08-17T00:08:46.870Z,8.85
2022-08-17T00:12:42.054Z,9.48
2022-08-17T00:16:07.575Z,8.50
2022-08-17T00:19:34.265Z,13.68
2022-08-17T00:23:04.580Z,8.70
2022-08-17T00:26:37.497Z,8.25
2022-08-17T00:30:11.625Z,10.10
2022-08-17T00:33:45.913Z,9.43
2022-08-17T00:37:12.705Z,11.05
2022-08-17T00:40:44.792Z,10.07
2022-08-17T00:44:31.306Z,12.27
2022-08-17T00:47:57.911Z,11.57
2022-08-17T00:51:24.790Z,11.00
2022-08-17T00:54:55.293Z,9.60
2022-08-17T00:58:36.248Z,11.68
2022-08-17T01:02:04.102Z,9.05
2022-08-17T01:08:59.965Z,15.38
2022-08-17T01:12:26.788Z,10.70
2022-08-17T01:15:58.281Z,12.68
2022-08-17T01:19:27.180Z,14.82
2022-08-17T01:22:56.241Z,12.75
2022-08-17T01:26:22.756Z,10.45
2022-08-17T01:29:52.519Z,11.37
2022-08-17T01:33:18.959Z,13.30
2022-08-17T01:36:46.287Z,11.35
2022-08-17T01:40:35.740Z,13.13
2022-08-17T01:44:16.856Z,9.13
2022-08-17T01:47:42.898Z,11.35
2022-08-17T01:51:10.245Z,9.93
2022-08-17T01:54:39.621Z,9.93
2022-08-17T01:58:09.881Z,9.30
2022-08-17T02:01:37.333Z,11.23
2022-08-17T02:05:03.636Z,10.00
2022-08-17T02:08:38.842Z,13.25
2022-08-17T02:12:37.669Z,9.43
2022-08-17T02:16:07.024Z,10.50
2022-08-17T02:23:00.963Z,9.38
2022-08-17T02:26:28.713Z,10.25
2022-08-17T02:29:54.652Z,9.25
2022-08-17T02:33:22.940Z,9.57
2022-08-17T02:36:49.018Z,10.85
2022-08-17T02:40:15.492Z,11.68
2022-08-17T02:43:43.614Z,9.10
2022-08-17T02:47:09.986Z,16.25
2022-08-17T02:50:36.577Z,18.05
2022-08-17T02:54:02.843Z,11.27
2022-08-17T02:57:49.538Z,15.52
2022-08-17T03:01:21.774Z,12.37
2022-08-17T03:04:47.631Z,12.65
2022-08-17T03:08:13.535Z,13.45
2022-08-17T03:11:39.472Z,16.70
2022-08-17T03:15:07.060Z,17.25
2022-08-17T03:18:33.004Z,14.55
2022-08-17T03:22:00.143Z,16.08
2022-08-17T03:25:46.282Z,18.25
2022-08-17T03:29:19.067Z,15.10
2022-08-17T03:32:46.971Z,11.02
2022-08-17T03:36:14.986Z,10.55
2022-08-17T03:39:40.959Z,9.77
2022-08-17T03:43:09.393Z,13.55
2022-08-17T03:46:54.322Z,9.70
2022-08-17T03:50:38.362Z,8.90
2022-08-17T03:54:29.281Z,9.30
2022-08-17T03:58:05.737Z,14.52
2022-08-17T04:01:32.351Z,9.77
2022-08-17T04:04:58.809Z,10.98
2022-08-17T04:08:26.829Z,9.68
2022-08-17T04:11:54.659Z,10.45
2022-08-17T04:15:23.339Z,10.88
2022-08-17T04:18:49.332Z,9.45
2022-08-17T04:22:31.291Z,14.50
2022-08-17T04:26:52.508Z,7.78
2022-08-17T04:30:01.077Z,10.48
2022-08-17T04:33:28.352Z,15.32
2022-08-17T04:36:56.499Z,15.73
2022-08-17T04:40:41.786Z,9.80
2022-08-17T04:44:11.864Z,10.20
2022-08-17T04:47:38.168Z,8.35
2022-08-17T04:51:10.649Z,12.43
2022-08-17T04:54:37.430Z,25.77
2022-08-17T04:58:03.327Z,14.02
2022-08-17T05:01:30.406Z,14.07
2022-08-17T05:04:57.211Z,10.93
2022-08-17T05:08:23.362Z,15.07
2022-08-17T05:11:49.282Z,14.63
2022-08-17T05:15:16.653Z,9.77
2022-08-17T05:22:08.719Z,9.65
2022-08-17T05:25:36.283Z,11.82
2022-08-17T05:29:03.525Z,13.48
2022-08-17T05:32:38.525Z,13.65
2022-08-17T05:36:08.506Z,12.45
2022-08-17T05:39:34.356Z,13.10
2022-08-17T05:43:05.070Z,10.15
2022-08-17T05:46:36.044Z,9.52
2022-08-17T05:50:09.503Z,16.27
2022-08-17T05:53:41.306Z,11.75
2022-08-17T05:57:30.790Z,13.80
2022-08-17T06:01:34.821Z,16.73
2022-08-17T06:05:39.261Z,13.52
2022-08-17T06:09:15.685Z,13.90
2022-08-17T06:13:01.012Z,18.25
2022-08-17T06:16:42.235Z,18.55
2022-08-17T06:20:47.616Z,16.33
2022-08-17T06:24:16.248Z,17.13
2022-08-17T06:27:45.299Z,13.93
2022-08-17T06:31:17.565Z,14.15
2022-08-17T06:34:44.625Z,14.77
2022-08-17T06:42:54.687Z,22.85
2022-08-17T06:46:26.178Z,20.33
2022-08-17T06:50:01.317Z,20.98
2022-08-17T06:53:38.208Z,12.07
2022-08-17T06:57:15.131Z,15.50
2022-08-17T07:00:48.359Z,12.82
2022-08-17T07:04:34.792Z,13.60
2022-08-17T07:08:15.963Z,13.02
2022-08-17T07:11:56.027Z,16.77
2022-08-17T07:15:34.321Z,23.52
2022-08-17T07:19:00.770Z,15.25
2022-08-17T07:22:53.501Z,19.25
2022-08-17T07:26:25.246Z,12.00
2022-08-17T07:29:54.064Z,16.08
2022-08-17T07:33:24.981Z,16.65
2022-08-17T07:37:05.498Z,18.58
2022-08-17T07:40:34.539Z,19.33
2022-08-17T07:44:17.911Z,16.10
2022-08-17T07:48:10.179Z,12.65
2022-08-17T07:51:44.547Z,14.98
2022-08-17T07:55:27.442Z,18.85
2022-08-17T07:59:10.743Z,11.90
2022-08-17T08:02:42.404Z,17.10
2022-08-17T08:06:22.718Z,13.77
2022-08-17T08:09:59.259Z,15.02
2022-08-17T08:13:32.601Z,16.00
2022-08-17T08:17:23.679Z,11.18
2022-08-17T08:20:55.299Z,15.05
2022-08-17T08:24:49.311Z,17.63
2022-08-17T08:28:39.502Z,17.60
2022-08-17T08:32:20.747Z,16.05
2022-08-17T08:36:11.792Z,17.73
2022-08-17T08:39:57.810Z,13.88
2022-08-17T08:43:30.452Z,13.63
2022-08-17T08:47:14.778Z,15.35
2022-08-17T08:50:53.308Z,14.18
2022-08-17T08:54:26.654Z,19.48
2022-08-17T08:58:32.093Z,13.02
2022-08-17T09:02:27.209Z,14.15
2022-08-17T09:06:37.353Z,14.93
2022-08-17T09:10:20.454Z,17.88
2022-08-17T09:14:29.105Z,9.95
2022-08-17T09:18:58.932Z,18.48
2022-08-17T09:22:33.266Z,16.67
2022-08-17T09:26:23.141Z,15.20
2022-08-17T09:29:59.955Z,15.73
2022-08-17T09:33:48.618Z,17.00
2022-08-17T09:37:14.590Z,11.43
2022-08-17T09:41:12.205Z,15.23
2022-08-17T09:44:54.646Z,11.90
2022-08-17T09:48:46.033Z,17.55
2022-08-17T09:52:20.530Z,14.90
2022-08-17T09:55:58.199Z,12.43
2022-08-17T09:59:57.429Z,13.25
2022-08-17T10:03:46.305Z,11.63
2022-08-17T10:07:26.115Z,15.40
2022-08-17T10:11:50.598Z,11.90
2022-08-17T10:15:37.280Z,13.63
2022-08-17T10:20:00.470Z,10.73
2022-08-17T10:23:53.822Z,10.27
2022-08-17T10:27:24.036Z,12.23
2022-08-17T10:31:10.451Z,11.90
2022-08-17T10:35:17.690Z,16.02
2022-08-17T10:39:03.350Z,12.98
2022-08-17T10:42:35.738Z,8.98
2022-08-17T10:46:31.245Z,9.95
2022-08-17T10:50:40.196Z,11.85
2022-08-17T10:54:06.605Z,8.85
2022-08-17T11:01:02.445Z,16.88
2022-08-17T11:04:48.015Z,17.77
2022-08-17T11:08:22.989Z,11.55
2022-08-17T11:12:17.589Z,10.13
2022-08-17T11:16:06.250Z,12.05
2022-08-17T11:19:40.415Z,12.30
2022-08-17T11:23:24.223Z,17.02
2022-08-17T11:27:04.343Z,19.23
2022-08-17T11:30:41.069Z,12.63
2022-08-17T11:34:34.861Z,10.52
2022-08-17T11:38:15.838Z,14.88
2022-08-17T11:42:05.069Z,13.77
2022-08-17T11:45:45.504Z,18.17
2022-08-17T11:50:11.965Z,9.00
2022-08-17T11:53:40.164Z,12.43
2022-08-17T11:57:29.522Z,14.85
2022-08-17T12:01:09.734Z,11.40
2022-08-17T12:05:00.794Z,14.75
2022-08-17T12:08:32.882Z,17.02
2022-08-17T12:12:13.738Z,11.60
2022-08-17T12:15:42.955Z,10.23
2022-08-17T12:19:21.989Z,11.93
2022-08-17T12:23:09.151Z,12.40
2022-08-17T12:26:53.145Z,11.23
2022-08-17T12:30:21.012Z,9.15
2022-08-17T12:33:48.515Z,16.58
2022-08-17T12:37:23.165Z,13.05
2022-08-17T12:40:57.912Z,10.82
2022-08-17T12:44:28.346Z,12.55
2022-08-17T12:48:02.929Z,11.88
2022-08-17T12:51:30.337Z,10.82
2022-08-17T12:54:59.690Z,10.50
2022-08-17T12:58:32.371Z,11.73
2022-08-17T13:02:03.561Z,11.90
2022-08-17T13:05:30.537Z,17.25
2022-08-17T13:09:09.658Z,10.60
2022-08-17T13:12:36.289Z,6.85
2022-08-17T13:19:51.962Z,12.48
2022-08-17T13:23:22.065Z,10.35
2022-08-17T13:27:07.925Z,12.55
2022-08-17T13:30:43.390Z,14.60
2022-08-17T13:34:26.722Z,11.68
2022-08-17T13:38:35.038Z,11.10
2022-08-17T13:45:43.871Z,8.27
2022-08-17T13:49:21.236Z,9.35
2022-08-17T13:52:51.816Z,9.25
2022-08-17T13:56:58.922Z,9.48
2022-08-17T14:00:39.710Z,11.43
2022-08-17T14:04:10.654Z,10.20
2022-08-17T14:07:59.735Z,10.60
2022-08-17T14:11:26.013Z,8.80
2022-08-17T14:18:50.519Z,9.50
2022-08-17T14:25:40.438Z,7.93
2022-08-17T14:29:15.320Z,10.55
2022-08-17T14:32:41.728Z,9.27
2022-08-17T14:36:08.828Z,9.57
2022-08-17T14:39:37.655Z,8.10
2022-08-17T14:43:03.783Z,18.35
2022-08-17T14:46:29.686Z,10.13
2022-08-17T14:49:55.579Z,12.77
2022-08-17T14:53:22.424Z,8.82
2022-08-17T14:56:57.008Z,11.95
2022-08-17T15:00:38.779Z,14.43
2022-08-17T15:04:04.737Z,12.52
2022-08-17T15:07:31.367Z,10.63
2022-08-17T15:10:58.998Z,12.00
2022-08-17T15:14:25.824Z,12.82
2022-08-17T15:17:51.828Z,9.93
2022-08-17T15:21:20.189Z,9.55
2022-08-17T15:24:46.120Z,12.43
2022-08-17T15:28:12.429Z,10.70
2022-08-17T15:31:39.008Z,10.30
2022-08-17T15:35:05.854Z,13.98
2022-08-17T15:38:34.365Z,17.80
2022-08-17T15:42:02.892Z,11.40
2022-08-17T15:45:31.008Z,12.75
2022-08-17T15:49:02.480Z,12.93
2022-08-17T15:52:40.548Z,8.90
2022-08-17T15:56:09.949Z,9.95
2022-08-17T15:59:36.783Z,11.43
2022-08-17T16:06:48.365Z,9.00
2022-08-17T16:10:18.886Z,12.70
2022-08-17T16:13:54.858Z,11.32
2022-08-17T16:17:40.097Z,10.48
2022-08-17T16:21:43.182Z,14.25
2022-08-17T16:25:12.198Z,10.43
2022-08-17T16:28:38.665Z,17.10
2022-08-17T16:32:11.407Z,11.13
2022-08-17T16:35:37.741Z,13.65
2022-08-17T16:39:04.986Z,15.07
2022-08-17T16:42:32.216Z,11.07
2022-08-17T16:46:06.895Z,10.57
2022-08-17T16:49:37.117Z,11.95
2022-08-17T16:53:10.876Z,12.77
2022-08-17T16:56:45.231Z,11.07
2022-08-17T17:00:16.845Z,15.30
2022-08-17T17:03:45.573Z,13.13
2022-08-17T17:07:41.029Z,8.93
2022-08-17T17:11:25.331Z,12.65
2022-08-17T17:15:01.954Z,11.43
2022-08-17T17:18:42.947Z,12.85
2022-08-17T17:22:15.521Z,12.65
2022-08-17T17:25:53.786Z,15.07
2022-08-17T17:29:47.782Z,12.38
2022-08-17T17:33:31.133Z,14.35
2022-08-17T17:37:27.790Z,17.05
2022-08-17T17:41:05.881Z,19.02
2022-08-17T17:44:39.226Z,18.00
2022-08-17T17:48:05.707Z,12.23
2022-08-17T17:52:09.494Z,15.57
2022-08-17T17:55:54.751Z,19.30
2022-08-17T17:59:47.883Z,13.77
2022-08-17T18:03:19.166Z,16.27
2022-08-17T18:07:00.950Z,15.13
2022-08-17T18:10:51.166Z,21.77
2022-08-17T18:14:44.646Z,15.38
2022-08-17T18:18:14.504Z,15.38
2022-08-17T18:21:46.174Z,17.67
2022-08-17T18:25:32.414Z,22.48
2022-08-17T18:28:58.718Z,16.50
2022-08-17T18:32:39.263Z,19.45
2022-08-17T18:36:09.013Z,11.95
2022-08-17T18:39:41.220Z,22.75
2022-08-17T18:43:36.493Z,21.90
2022-08-17T18:47:22.611Z,20.05
2022-08-17T18:50:53.762Z,15.48
2022-08-17T18:54:39.386Z,14.50
2022-08-17T18:58:18.523Z,16.15
2022-08-17T19:01:59.905Z,18.23
2022-08-17T19:05:40.452Z,17.27
2022-08-17T19:09:29.888Z,22.77
2022-08-17T19:13:00.810Z,17.17
2022-08-17T19:16:37.604Z,12.80
2022-08-17T19:20:11.343Z,15.65
2022-08-17T19:24:12.155Z,15.35
2022-08-17T19:27:49.985Z,18.38
2022-08-17T19:31:24.773Z,16.27
2022-08-17T19:34:51.125Z,19.52
2022-08-17T19:38:40.796Z,15.17
2022-08-17T19:42:14.434Z,16.13
2022-08-17T19:46:17.113Z,21.17
2022-08-17T19:49:57.317Z,13.82
2022-08-17T19:54:06.979Z,18.48
2022-08-17T19:57:47.743Z,20.52
2022-08-17T20:01:19.898Z,24.27
2022-08-17T20:05:23.289Z,24.83
2022-08-17T20:09:23.494Z,26.00
2022-08-17T20:13:01.973Z,20.08
2022-08-17T20:16:29.720Z,31.55
2022-08-17T20:20:03.694Z,22.52
2022-08-17T20:23:40.038Z,15.65
2022-08-17T20:27:34.821Z,17.35
2022-08-17T20:31:27.649Z,16.23
2022-08-17T20:35:22.751Z,16.13
2022-08-17T20:39:28.761Z,15.05
2022-08-17T20:43:23.137Z,19.02
2022-08-17T20:46:58.542Z,17.77
2022-08-17T20:50:59.227Z,21.20
2022-08-17T20:54:49.140Z,19.25
2022-08-17T20:58:31.382Z,23.10
2022-08-17T21:02:18.665Z,26.02
2022-08-17T21:06:00.604Z,24.77
2022-08-17T21:09:37.678Z,20.05
2022-08-17T21:13:13.904Z,16.40
2022-08-17T21:17:01.621Z,21.50
2022-08-17T21:21:06.940Z,20.90
2022-08-17T21:24:49.570Z,17.70
2022-08-17T21:29:00.861Z,13.10
2022-08-17T21:32:31.304Z,11.52
2022-08-17T21:36:12.024Z,20.85
2022-08-17T21:39:51.570Z,18.58
2022-08-17T21:43:25.234Z,13.25
2022-08-17T21:47:24.946Z,14.23
2022-08-17T21:51:12.345Z,21.63
2022-08-17T21:54:42.810Z,17.42
2022-08-17T21:58:34.441Z,21.83
2022-08-17T22:02:19.017Z,24.40
2022-08-17T22:05:54.865Z,23.27
2022-08-17T22:09:23.991Z,23.70
2022-08-17T22:13:19.810Z,22.30
2022-08-17T22:16:47.577Z,31.77
2022-08-17T22:20:17.576Z,25.08
2022-08-17T22:24:06.538Z,15.25
2022-08-17T22:27:58.275Z,16.73
2022-08-17T22:31:28.048Z,17.70
2022-08-17T22:35:15.112Z,14.23
2022-08-17T22:38:41.808Z,14.25
2022-08-17T22:42:24.148Z,19.05
2022-08-17T22:45:53.534Z,12.45
2022-08-17T22:49:26.941Z,14.00
2022-08-17T22:53:22.847Z,12.93
2022-08-17T22:57:18.790Z,11.90
2022-08-17T23:00:48.810Z,12.55
2022-08-17T23:04:37.197Z,13.65
2022-08-17T23:08:03.761Z,26.40
2022-08-17T23:11:36.875Z,22.58
2022-08-17T23:15:16.488Z,23.75
2022-08-17T23:18:42.938Z,26.13
2022-08-17T23:22:10.458Z,23.97
2022-08-17T23:25:44.792Z,27.08
2022-08-17T23:29:11.038Z,24.98
2022-08-17T23:32:39.503Z,15.75
2022-08-17T23:36:19.408Z,24.65
2022-08-17T23:39:45.882Z,21.67
2022-08-17T23:43:24.270Z,22.63
2022-08-17T23:46:55.269Z,17.17
2022-08-17T23:50:21.520Z,17.38
2022-08-17T23:53:49.018Z,22.55
2022-08-17T23:57:18.511Z,14.70
